Time;durP1;ratioP1;P1;durP2;ratioP2;P2;SDS_P1;SDS_P2;PMS_P1;PMS_P2;Temp;Humidity;BMP_temperature;BMP_pressure;BME280_temperature;BME280_humidity;BME280_pressure;Samples;Min_cycle;Max_cycle;Signal;HPM_P1;HPM_P2
2022/01/30 00:02:07;;;;;;;11.20;4.40;;;;;;;1.49;73.34;97822.91;105969;1276;96506;-72
2022/01/30 00:04:35;;;;;;;12.40;4.50;;;;;;;1.53;73.82;97817.30;105979;1276;109278;-72
2022/01/30 00:07:03;;;;;;;12.90;5.10;;;;;;;1.55;73.80;97800.20;105973;1276;94639;-72
2022/01/30 00:09:33;;;;;;;7.80;3.90;;;;;;;1.58;73.37;97796.39;105945;1276;107733;-72
2022/01/30 00:12:03;;;;;;;11.20;4.70;;;;;;;1.61;73.77;97787.62;105991;1276;94609;-72
2022/01/30 00:14:39;;;;;;;10.80;4.40;;;;;;;1.63;73.99;97782.65;105964;1275;94256;-71
2022/01/30 00:17:18;;;;;;;11.70;4.70;;;;;;;1.65;73.91;97773.41;105894;1277;111115;-71
2022/01/30 00:19:54;;;;;;;13.00;5.00;;;;;;;1.69;74.12;97768.00;105907;1275;96554;-71
2022/01/30 00:22:41;;;;;;;10.80;4.50;;;;;;;1.71;74.08;97758.56;105932;1276;107728;-71
2022/01/30 00:25:15;;;;;;;11.40;4.40;;;;;;;1.74;73.91;97751.74;105780;1276;94379;-72
2022/01/30 00:27:48;;;;;;;13.30;5.20;;;;;;;1.78;74.05;97742.29;105838;1276;94281;-73
2022/01/30 00:30:17;;;;;;;10.80;4.70;;;;;;;1.82;74.11;97732.10;106030;1276;109971;-72
2022/01/30 00:32:45;;;;;;;8.90;4.20;;;;;;;1.85;74.20;97738.20;105991;1276;96556;-71
2022/01/30 00:35:36;;;;;;;8.80;5.00;;;;;;;1.88;73.96;97739.59;105935;1276;107642;-72
2022/01/30 00:38:15;;;;;;;13.80;4.50;;;;;;;1.94;74.34;97744.16;106008;1276;96564;-72
2022/01/30 00:40:48;;;;;;;12.20;4.70;;;;;;;1.99;74.04;97741.41;105938;1276;97326;-73
2022/01/30 00:43:18;;;;;;;10.90;4.70;;;;;;;2.04;74.22;97732.91;105969;1276;110132;-72
2022/01/30 00:45:52;;;;;;;14.50;4.30;;;;;;;2.08;74.23;97732.64;105939;1276;96561;-72
2022/01/30 00:48:24;;;;;;;13.50;4.80;;;;;;;2.12;74.46;97729.28;105927;1276;107710;-72
2022/01/30 00:50:56;;;;;;;14.10;4.80;;;;;;;2.15;74.38;97728.23;105930;1276;96552;-73
2022/01/30 00:53:23;;;;;;;13.60;4.30;;;;;;;2.18;74.36;97730.48;105990;1276;94256;-72
2022/01/30 00:55:51;;;;;;;10.80;4.30;;;;;;;2.22;74.49;97716.44;106673;1276;109966;-72
2022/01/30 00:58:19;;;;;;;12.00;5.00;;;;;;;2.27;74.40;97715.46;106032;1277;96522;-72
2022/01/30 01:00:47;;;;;;;7.70;3.50;;;;;;;2.30;74.21;97708.61;106074;1277;107464;-75
2022/01/30 01:03:19;;;;;;;7.20;3.50;;;;;;;2.38;74.61;97716.69;106125;1276;96505;-72
2022/01/30 01:05:52;;;;;;;9.60;3.60;;;;;;;2.48;74.51;97711.20;106056;1276;96536;-72
2022/01/30 01:08:35;;;;;;;6.80;3.30;;;;;;;2.58;74.73;97707.48;106100;1276;109198;-72
2022/01/30 01:24:53;;;;;;;6.90;3.00;;;;;;;3.12;74.59;97652.38;105934;1276;96535;-73
2022/01/30 01:27:21;;;;;;;8.90;2.90;;;;;;;3.16;74.72;97651.66;105920;1276;108179;-73
2022/01/30 01:29:48;;;;;;;6.70;2.60;;;;;;;3.20;74.48;97657.00;105931;1276;96540;-73
2022/01/30 01:32:16;;;;;;;9.10;2.80;;;;;;;3.24;74.52;97651.13;105971;1276;96556;-73
2022/01/30 01:34:44;;;;;;;5.70;2.70;;;;;;;3.30;74.45;97638.12;105975;1276;110040;-73
2022/01/30 01:37:12;;;;;;;6.50;2.70;;;;;;;3.35;74.28;97640.08;105911;1276;96548;-72
2022/01/30 01:39:45;;;;;;;5.20;2.60;;;;;;;3.39;74.19;97642.23;105917;1276;108876;-72
2022/01/30 01:42:15;;;;;;;5.30;2.40;;;;;;;3.43;74.31;97625.70;105909;1276;96677;-72
2022/01/30 01:44:49;;;;;;;4.80;2.30;;;;;;;3.47;74.36;97622.80;106027;1276;94586;-74
2022/01/30 01:47:21;;;;;;;4.20;2.10;;;;;;;3.51;74.37;97627.60;105940;1276;110117;-72
2022/01/30 01:49:52;;;;;;;3.60;2.00;;;;;;;3.55;74.29;97632.26;105975;1276;95217;-72
2022/01/30 01:52:26;;;;;;;5.40;2.20;;;;;;;3.58;74.26;97625.91;105954;1276;107678;-72
2022/01/30 01:55:00;;;;;;;3.60;2.00;;;;;;;3.62;74.33;97624.59;106112;1276;94256;-73
2022/01/30 01:57:32;;;;;;;5.00;2.20;;;;;;;3.66;74.22;97614.00;106052;1276;94360;-74
2022/01/30 02:00:01;;;;;;;5.80;1.90;;;;;;;3.70;74.17;97601.27;106043;1276;110107;-73
2022/01/30 02:02:29;;;;;;;3.30;2.00;;;;;;;3.73;74.53;97588.41;106040;1276;96555;-75
2022/01/30 02:05:06;;;;;;;3.10;2.00;;;;;;;3.79;74.33;97590.89;106098;1276;106683;-74
2022/01/30 02:08:11;;;;;;;5.80;2.10;;;;;;;3.83;74.40;97581.48;106150;1276;96535;-75
2022/01/30 02:13:37;;;;;;;3.50;1.90;;;;;;;3.94;74.41;97567.70;106081;1276;108692;-72
2022/01/30 02:25:09;;;;;;;3.10;1.30;;;;;;;4.17;73.98;97549.65;106080;1276;94252;-72
2022/01/30 02:27:38;;;;;;;4.30;1.80;;;;;;;4.29;74.27;97557.04;106051;1276;109942;-71
2022/01/30 02:30:19;;;;;;;4.00;1.60;;;;;;;4.38;74.12;97559.73;106040;1276;96616;-72
2022/01/30 02:32:48;;;;;;;5.10;1.90;;;;;;;4.51;73.95;97559.16;105982;1276;107686;-70
2022/01/30 02:35:17;;;;;;;4.90;1.60;;;;;;;4.64;74.05;97550.70;105947;1276;94435;-71
2022/01/30 02:37:47;;;;;;;2.70;1.50;;;;;;;4.75;73.90;97531.65;106041;1276;96532;-73
2022/01/30 02:40:16;;;;;;;2.60;1.60;;;;;;;4.87;73.75;97538.85;106077;1276;111155;-72
2022/01/30 02:42:49;;;;;;;4.10;1.50;;;;;;;4.97;73.63;97553.72;106069;1276;94348;-73
2022/01/30 02:45:24;;;;;;;3.50;1.70;;;;;;;5.09;73.30;97547.05;106063;1276;108792;-73
2022/01/30 02:48:10;;;;;;;2.60;1.60;;;;;;;5.21;73.48;97538.48;106074;1276;96642;-73
2022/01/30 02:51:07;;;;;;;1.80;1.10;;;;;;;5.29;73.08;97537.48;106176;1277;94227;-71
2022/01/30 02:53:43;;;;;;;5.00;1.80;;;;;;;5.36;72.84;97540.84;106123;1276;110111;-72
2022/01/30 02:56:12;;;;;;;2.70;1.60;;;;;;;5.41;72.08;97556.48;106020;1277;96647;-73
2022/01/30 02:58:40;;;;;;;5.60;1.50;;;;;;;5.50;72.74;97533.46;106134;1277;107822;-72
2022/01/30 03:01:08;;;;;;;1.60;1.20;;;;;;;5.55;72.73;97535.55;106130;1276;94258;-72
2022/01/30 03:03:40;;;;;;;3.20;1.40;;;;;;;5.57;72.07;97552.27;106193;1277;96529;-71
2022/01/30 03:06:08;;;;;;;2.00;1.30;;;;;;;5.59;72.46;97567.05;106066;1276;110076;-73
2022/01/30 03:08:37;;;;;;;4.40;1.70;;;;;;;5.60;72.21;97555.91;106104;1276;96377;-71
2022/01/30 03:11:10;;;;;;;5.00;1.20;;;;;;;5.57;71.44;97555.44;106079;1277;107725;-71
2022/01/30 03:13:37;;;;;;;7.10;1.60;;;;;;;5.51;71.60;97566.41;105995;1277;96621;-73
2022/01/30 03:16:05;;;;;;;4.10;1.70;;;;;;;5.46;71.82;97564.56;105998;1276;95409;-71
2022/01/30 03:18:33;;;;;;;3.80;1.40;;;;;;;5.40;71.83;97580.44;106087;1277;109062;-73
2022/01/30 03:21:07;;;;;;;4.40;1.70;;;;;;;5.32;71.25;97582.30;106198;1276;96502;-72
2022/01/30 03:23:39;;;;;;;5.10;1.60;;;;;;;5.21;70.71;97577.29;106106;1277;107739;-73
2022/01/30 03:26:13;;;;;;;6.70;2.00;;;;;;;5.12;70.75;97568.84;106108;1276;96640;-71
2022/01/30 03:28:46;;;;;;;6.70;3.00;;;;;;;5.03;71.29;97570.15;106037;1275;94280;-70
2022/01/30 03:31:14;;;;;;;8.60;2.70;;;;;;;4.94;70.83;97568.00;106051;1277;109893;-69
2022/01/30 03:33:42;;;;;;;5.60;1.80;;;;;;;4.85;70.82;97566.74;104340;1276;2290158;-72
2022/01/30 03:36:10;;;;;;;4.10;1.90;;;;;;;4.78;70.96;97557.25;106044;1276;96504;-70
2022/01/30 03:38:38;;;;;;;3.40;1.70;;;;;;;4.71;71.28;97564.02;106030;1277;96626;-71
2022/01/30 03:41:06;;;;;;;7.10;1.90;;;;;;;4.65;70.68;97568.21;105835;1277;95839;-72
2022/01/30 03:43:34;;;;;;;7.90;2.20;;;;;;;4.59;71.10;97583.33;105990;1276;109598;-69
2022/01/30 03:46:02;;;;;;;6.70;2.00;;;;;;;4.55;70.69;97575.44;106124;1276;96529;-73
2022/01/30 03:48:30;;;;;;;5.60;2.10;;;;;;;4.52;70.68;97579.10;106084;1276;106334;-74
2022/01/30 03:50:58;;;;;;;7.10;2.40;;;;;;;4.49;70.94;97574.05;106136;1277;95062;-71
2022/01/30 03:53:26;;;;;;;6.00;1.60;;;;;;;4.47;71.25;97577.35;106039;1277;96531;-72
2022/01/30 03:55:53;;;;;;;5.20;1.40;;;;;;;4.45;71.18;97588.55;106049;1275;110109;-71
2022/01/30 03:58:21;;;;;;;3.50;1.30;;;;;;;4.42;71.15;97598.95;106013;1276;96550;-72
2022/01/30 04:00:49;;;;;;;4.60;1.40;;;;;;;4.37;71.26;97615.30;106089;1277;107765;-70
2022/01/30 04:03:21;;;;;;;11.40;2.30;;;;;;;4.17;71.35;97617.02;106037;1277;96500;-71
2022/01/30 04:05:55;;;;;;;5.60;1.40;;;;;;;3.88;71.50;97635.27;106073;1277;96522;-71
2022/01/30 04:08:25;;;;;;;9.10;1.90;;;;;;;3.56;71.63;97631.13;106031;1276;109926;-72
2022/01/30 04:10:53;;;;;;;8.10;1.20;;;;;;;3.27;71.91;97596.60;106074;1276;95019;-73
2022/01/30 04:13:21;;;;;;;8.30;1.70;;;;;;;3.03;72.08;97601.49;106017;1276;107729;-73
2022/01/30 04:15:49;;;;;;;8.90;1.40;;;;;;;2.85;71.94;97614.60;106032;1277;94246;-73
2022/01/30 04:18:18;;;;;;;5.20;0.80;;;;;;;2.68;72.26;97590.94;106033;1276;96551;-72
2022/01/30 04:20:47;;;;;;;5.40;1.40;;;;;;;2.54;71.97;97569.27;106026;1277;110011;-72
2022/01/30 04:23:19;;;;;;;7.70;1.30;;;;;;;2.42;71.94;97567.95;106065;1276;96754;-74
2022/01/30 04:25:48;;;;;;;3.50;1.20;;;;;;;2.34;72.40;97567.91;106053;1276;107774;-72
2022/01/30 04:28:21;;;;;;;6.60;1.20;;;;;;;2.29;72.21;97571.54;106084;1276;97673;-71
2022/01/30 04:30:49;;;;;;;5.30;1.20;;;;;;;2.24;72.69;97570.13;106065;1276;96540;-72
2022/01/30 04:33:17;;;;;;;9.00;1.50;;;;;;;2.17;72.54;97565.95;106062;1277;110028;-72
2022/01/30 04:35:50;;;;;;;3.40;0.80;;;;;;;2.13;72.33;97565.20;106073;1277;94644;-72
2022/01/30 04:38:33;;;;;;;5.90;1.10;;;;;;;2.10;72.36;97569.71;106125;1276;107853;-73
2022/01/30 04:52:49;;;;;;;12.80;2.20;;;;;;;2.43;72.83;97538.99;106003;1277;107738;-71
2022/01/30 04:58:01;;;;;;;;;;;;;;;2.53;72.87;97542.05;106054;1277;96508;-71
2022/01/30 05:00:50;;;;;;;10.90;2.70;;;;;;;2.56;72.49;97549.90;106037;1277;110081;-72
2022/01/30 05:06:53;;;;;;;17.30;3.00;;;;;;;2.67;73.19;97550.08;105842;1281;106746;-73
2022/01/30 05:09:20;;;;;;;10.30;2.40;;;;;;;2.73;72.65;97545.50;105686;1281;94809;-73
2022/01/30 05:11:47;;;;;;;7.00;1.90;;;;;;;2.76;72.87;97546.67;106042;1278;96510;-73
2022/01/30 05:14:16;;;;;;;18.60;3.90;;;;;;;2.80;73.14;97541.16;106137;1277;109962;-73
2022/01/30 05:16:48;;;;;;;13.10;2.60;;;;;;;2.83;73.06;97533.42;106072;1277;96635;-72
2022/01/30 05:19:21;;;;;;;11.90;2.80;;;;;;;2.88;72.93;97531.54;106020;1277;107581;-72
2022/01/30 05:21:49;;;;;;;13.90;2.50;;;;;;;2.92;73.04;97533.74;106029;1277;95213;-71
2022/01/30 05:24:17;;;;;;;11.90;2.80;;;;;;;2.96;72.89;97521.21;106051;1276;96506;-72
2022/01/30 05:26:54;;;;;;;11.80;2.40;;;;;;;3.02;72.75;97519.27;106026;1278;110563;-73
2022/01/30 05:29:22;;;;;;;9.80;2.20;;;;;;;3.08;72.97;97517.11;106033;1277;94332;-73
2022/01/30 05:31:50;;;;;;;12.80;3.10;;;;;;;3.12;72.63;97502.63;106037;1277;107852;-73
2022/01/30 05:34:18;;;;;;;13.30;2.80;;;;;;;3.17;72.55;97493.21;106066;1277;96589;-71
2022/01/30 05:36:46;;;;;;;12.50;3.20;;;;;;;3.19;72.59;97484.82;106104;1277;97133;-73
2022/01/30 05:39:14;;;;;;;18.60;3.70;;;;;;;3.22;72.55;97487.96;106061;1278;110058;-73
2022/01/30 05:41:42;;;;;;;14.70;3.10;;;;;;;3.23;72.12;97475.27;106084;1277;96718;-71
2022/01/30 05:44:11;;;;;;;14.50;2.90;;;;;;;3.25;72.29;97464.97;106112;1277;107793;-71
2022/01/30 05:46:53;;;;;;;13.00;2.70;;;;;;;3.27;72.25;97468.14;106000;1276;96434;-72
2022/01/30 05:49:27;;;;;;;12.80;3.00;;;;;;;3.34;72.33;97468.12;105954;1277;95701;-73
2022/01/30 05:51:55;;;;;;;10.40;2.40;;;;;;;3.41;72.20;97475.83;105975;1277;110163;-73
2022/01/30 05:54:22;;;;;;;11.10;3.00;;;;;;;3.46;72.11;97470.06;106062;1277;95659;-71
2022/01/30 05:56:50;;;;;;;17.10;2.90;;;;;;;3.50;72.07;97455.61;106066;1277;108550;-73
2022/01/30 05:59:18;;;;;;;16.40;2.70;;;;;;;3.52;72.16;97447.17;105975;1277;96629;-71
2022/01/30 06:01:46;;;;;;;11.50;2.40;;;;;;;3.54;71.87;97448.42;106031;1276;94285;-73
2022/01/30 06:04:14;;;;;;;13.00;2.30;;;;;;;3.57;70.72;97451.55;106055;1277;109973;-70
2022/01/30 06:06:49;;;;;;;18.00;3.10;;;;;;;3.63;70.63;97460.81;106168;1277;96568;-73
2022/01/30 06:09:23;;;;;;;15.40;3.70;;;;;;;3.69;71.32;97459.65;106137;1277;107898;-71
2022/01/30 06:11:51;;;;;;;16.90;2.80;;;;;;;3.72;70.91;97462.25;106071;1275;96523;-71
2022/01/30 06:14:24;;;;;;;15.30;2.80;;;;;;;3.76;70.31;97476.39;106135;1278;96535;-73
2022/01/30 06:16:53;;;;;;;13.80;4.10;;;;;;;3.79;70.44;97467.24;106055;1278;110127;-72
2022/01/30 06:19:26;;;;;;;16.80;2.50;;;;;;;3.81;70.24;97467.83;106085;1278;96341;-72
2022/01/30 06:21:58;;;;;;;13.00;3.00;;;;;;;3.83;70.51;97465.41;106033;1277;107645;-72
2022/01/30 06:24:26;;;;;;;17.80;3.10;;;;;;;3.83;69.82;97456.59;106078;1274;96504;-72
2022/01/30 06:26:54;;;;;;;15.20;3.30;;;;;;;3.86;70.05;97457.46;106089;1274;96593;-73
2022/01/30 06:29:21;;;;;;;16.70;2.70;;;;;;;3.88;70.07;97458.35;106099;1274;109892;-70
2022/01/30 06:31:54;;;;;;;11.30;2.50;;;;;;;3.91;70.40;97462.55;106080;1274;94398;-71
2022/01/30 06:34:28;;;;;;;15.00;2.60;;;;;;;3.92;69.31;97467.73;106104;1274;107574;-73
2022/01/30 06:36:56;;;;;;;12.10;3.20;;;;;;;3.94;69.31;97478.99;106104;1274;96621;-72
2022/01/30 06:39:24;;;;;;;11.50;3.30;;;;;;;3.95;68.22;97474.19;106144;1274;96386;-72
2022/01/30 06:41:52;;;;;;;14.40;3.00;;;;;;;3.99;68.32;97473.39;106160;1278;110022;-72
2022/01/30 06:44:24;;;;;;;14.00;3.10;;;;;;;4.01;68.69;97468.34;106142;1277;96495;-75
2022/01/30 06:46:52;;;;;;;15.40;2.70;;;;;;;4.03;69.10;97459.61;106083;1274;107787;-75
2022/01/30 06:49:20;;;;;;;13.00;2.20;;;;;;;4.05;68.92;97456.81;106111;1274;96642;-73
2022/01/30 06:51:48;;;;;;;13.90;2.40;;;;;;;4.05;68.06;97454.92;105931;1277;96511;-73
2022/01/30 06:54:16;;;;;;;16.10;3.20;;;;;;;4.05;68.23;97460.14;106058;1277;110096;-72
2022/01/30 06:56:44;;;;;;;12.60;3.00;;;;;;;4.06;67.94;97452.88;106103;1277;94250;-72
2022/01/30 06:59:12;;;;;;;12.80;2.50;;;;;;;4.06;67.94;97445.85;106118;1275;107404;-70
2022/01/30 07:01:39;;;;;;;12.20;2.60;;;;;;;4.07;68.28;97453.37;106134;1274;94260;-71
2022/01/30 07:04:17;;;;;;;16.40;3.60;;;;;;;4.06;67.06;97434.67;106122;1274;96509;-71
2022/01/30 07:06:44;;;;;;;;;;;;;;;4.07;67.08;97440.04;106104;1274;109984;-73
2022/01/30 07:09:12;;;;;;;12.60;2.30;;;;;;;4.06;67.14;97447.41;106104;1274;96519;-73
2022/01/30 07:11:40;;;;;;;11.80;2.50;;;;;;;4.06;66.49;97444.30;106118;1274;107841;-70
2022/01/30 07:14:08;;;;;;;9.70;2.20;;;;;;;4.07;67.72;97432.70;106116;1274;94600;-72
2022/01/30 07:16:35;;;;;;;9.50;2.50;;;;;;;4.08;67.57;97431.90;106147;1274;94845;-70
2022/01/30 07:19:03;;;;;;;9.10;2.60;;;;;;;4.07;67.52;97424.91;106075;1277;110141;-71
2022/01/30 07:21:31;;;;;;;14.90;3.10;;;;;;;4.04;67.64;97415.89;106107;1277;94365;-73
2022/01/30 07:23:59;;;;;;;10.40;2.60;;;;;;;4.01;67.60;97402.91;106113;1274;107535;-73
2022/01/30 07:26:27;;;;;;;11.60;2.50;;;;;;;4.00;67.03;97411.34;106111;1277;96679;-73
2022/01/30 07:28:55;;;;;;;16.60;3.00;;;;;;;4.00;67.57;97405.73;106026;1276;96561;-73
2022/01/30 07:31:23;;;;;;;15.80;3.10;;;;;;;4.01;66.60;97413.22;106024;1274;109708;-68
2022/01/30 07:33:51;;;;;;;18.60;3.00;;;;;;;4.02;67.33;97402.31;106070;1274;94685;-71
2022/01/30 07:36:19;;;;;;;15.10;3.30;;;;;;;4.04;67.34;97413.20;106037;1277;107527;-70
2022/01/30 07:38:47;;;;;;;15.10;3.10;;;;;;;4.08;66.99;97406.21;106028;1274;96623;-73
2022/01/30 07:41:14;;;;;;;14.30;2.90;;;;;;;4.11;66.54;97412.90;106056;1274;96602;-72
2022/01/30 07:43:47;;;;;;;13.70;3.60;;;;;;;4.12;66.43;97408.91;106019;1276;109590;-73
2022/01/30 07:46:18;;;;;;;21.90;3.80;;;;;;;4.16;66.83;97397.04;106017;1274;96633;-72
2022/01/30 07:48:46;;;;;;;13.40;3.10;;;;;;;4.24;66.44;97401.80;106027;1274;107746;-74
2022/01/30 07:51:17;;;;;;;19.40;4.30;;;;;;;4.26;66.29;97396.69;106054;1277;96628;-74
2022/01/30 07:53:45;;;;;;;14.60;3.80;;;;;;;4.28;66.07;97391.64;106093;1274;96606;-73
2022/01/30 07:56:13;;;;;;;14.10;3.10;;;;;;;4.31;66.06;97402.96;106006;1276;109739;-73
2022/01/30 07:58:45;;;;;;;14.30;3.30;;;;;;;4.37;66.28;97385.42;106083;1274;96543;-73
2022/01/30 08:01:13;;;;;;;14.60;2.70;;;;;;;4.43;65.90;97385.48;106012;1276;108828;-75
2022/01/30 08:03:44;;;;;;;17.00;3.30;;;;;;;4.48;65.33;97374.33;106140;1274;94959;-72
2022/01/30 08:06:18;;;;;;;12.70;3.30;;;;;;;4.52;65.46;97372.11;106049;1277;96542;-72
2022/01/30 08:08:46;;;;;;;11.20;2.60;;;;;;;4.54;65.02;97369.52;106135;1274;109025;-72
2022/01/30 08:11:14;;;;;;;13.00;3.00;;;;;;;4.55;64.57;97358.02;106056;1274;96508;-72
2022/01/30 08:13:42;;;;;;;15.70;3.20;;;;;;;4.57;64.82;97370.58;105944;1277;107623;-74
2022/01/30 08:16:10;;;;;;;17.00;3.00;;;;;;;4.57;64.14;97374.38;105962;1276;96425;-73
2022/01/30 08:18:38;;;;;;;11.90;2.70;;;;;;;4.61;64.59;97367.48;106054;1276;94221;-73
2022/01/30 08:21:10;;;;;;;12.50;3.00;;;;;;;4.65;63.68;97354.87;106017;1277;110055;-73
2022/01/30 08:23:38;;;;;;;11.60;2.70;;;;;;;4.71;62.68;97367.20;106149;1277;96539;-72
2022/01/30 08:26:06;;;;;;;13.40;2.80;;;;;;;4.75;62.66;97361.47;106064;1276;107727;-74
2022/01/30 08:28:34;;;;;;;9.40;2.50;;;;;;;4.78;62.80;97368.59;106012;1276;95018;-73
2022/01/30 08:31:02;;;;;;;11.00;2.50;;;;;;;4.82;63.57;97373.77;106093;1276;97458;-71
2022/01/30 08:33:30;;;;;;;15.90;2.70;;;;;;;4.86;63.53;97366.06;106082;1277;110044;-72
2022/01/30 08:35:57;;;;;;;14.20;2.80;;;;;;;4.90;63.40;97369.46;106062;1277;94263;-72
2022/01/30 08:38:25;;;;;;;18.10;3.20;;;;;;;4.92;62.24;97365.64;106016;1276;107656;-71
2022/01/30 08:40:53;;;;;;;18.30;3.80;;;;;;;4.97;63.03;97365.95;105967;1276;97122;-71
2022/01/30 08:43:22;;;;;;;13.70;3.30;;;;;;;4.97;62.97;97358.05;106107;1276;94269;-72
2022/01/30 08:45:54;;;;;;;14.90;3.50;;;;;;;4.98;62.64;97362.87;106050;1277;110080;-71
2022/01/30 08:48:22;;;;;;;8.20;2.60;;;;;;;5.00;62.09;97369.23;106047;1277;96513;-73
2022/01/30 08:50:53;;;;;;;14.70;3.20;;;;;;;5.02;62.00;97346.43;106050;1277;107800;-72
2022/01/30 08:53:21;;;;;;;14.00;2.80;;;;;;;5.04;62.69;97361.58;105995;1276;95447;-70
2022/01/30 08:55:49;;;;;;;13.30;2.70;;;;;;;5.02;62.38;97358.36;105978;1276;96535;-70
2022/01/30 08:58:16;;;;;;;12.70;2.70;;;;;;;5.01;62.22;97365.98;106020;1277;109920;-71
2022/01/30 09:00:44;;;;;;;17.50;4.10;;;;;;;5.01;62.45;97368.48;106066;1276;96618;-70
2022/01/30 09:03:14;;;;;;;13.50;3.30;;;;;;;5.01;62.10;97359.15;106078;1276;109028;-73
2022/01/30 09:05:47;;;;;;;10.40;3.00;;;;;;;5.00;62.47;97346.20;106027;1276;96635;-73
2022/01/30 09:08:18;;;;;;;18.10;3.10;;;;;;;5.00;61.46;97350.63;106037;1276;94609;-75
2022/01/30 09:10:46;;;;;;;9.30;2.60;;;;;;;4.98;61.06;97343.18;106063;1277;110092;-74
2022/01/30 09:13:15;;;;;;;13.40;3.20;;;;;;;4.97;61.06;97344.35;106093;1274;94977;-72
2022/01/30 09:15:43;;;;;;;14.20;3.20;;;;;;;4.96;61.87;97351.62;106076;1277;107812;-82
2022/01/30 09:18:17;;;;;;;11.00;2.80;;;;;;;4.93;61.55;97346.77;106051;1275;94619;-72
2022/01/30 09:20:46;;;;;;;12.30;3.90;;;;;;;4.90;61.61;97345.77;106061;1274;94558;-75
2022/01/30 09:23:19;;;;;;;11.80;2.90;;;;;;;4.86;61.24;97360.99;106060;1274;109000;-76
2022/01/30 09:25:51;;;;;;;11.80;3.20;;;;;;;4.79;60.91;97353.64;106053;1274;94446;-75
2022/01/30 09:28:19;;;;;;;11.50;3.00;;;;;;;4.71;61.13;97350.16;106031;1274;107575;-75
2022/01/30 09:30:47;;;;;;;10.60;2.90;;;;;;;4.63;61.91;97344.49;105997;1276;96638;-74
2022/01/30 09:33:15;;;;;;;9.40;2.60;;;;;;;4.52;62.06;97348.83;106077;1274;96522;-74
2022/01/30 09:35:43;;;;;;;15.30;3.00;;;;;;;4.41;62.31;97346.96;106072;1274;109951;-74
2022/01/30 09:38:11;;;;;;;17.90;4.20;;;;;;;4.32;62.50;97339.77;105924;1276;97643;-73
2022/01/30 09:40:39;;;;;;;13.20;3.60;;;;;;;4.22;62.86;97359.65;105843;1274;107501;-73
2022/01/30 09:43:08;;;;;;;15.80;3.90;;;;;;;4.12;62.90;97360.67;105847;1274;95063;-74
2022/01/30 09:45:36;;;;;;;16.20;4.50;;;;;;;4.04;63.08;97385.33;105886;1274;96616;-75
2022/01/30 09:48:07;;;;;;;12.60;3.10;;;;;;;3.93;63.40;97380.15;105759;1274;109900;-74
2022/01/30 09:50:35;;;;;;;10.00;3.20;;;;;;;3.84;63.47;97360.13;105792;1276;96556;-75
2022/01/30 09:53:04;;;;;;;11.30;3.20;;;;;;;3.78;63.46;97363.73;105929;1274;109777;-75
2022/01/30 09:55:32;;;;;;;11.20;3.10;;;;;;;3.72;63.96;97364.23;105896;1273;96608;-74
2022/01/30 09:57:59;;;;;;;12.70;3.80;;;;;;;3.70;63.65;97368.94;105780;1274;94302;-74
2022/01/30 10:00:27;;;;;;;12.20;4.10;;;;;;;3.66;64.02;97361.94;105770;1276;110038;-73
2022/01/30 10:02:55;;;;;;;13.20;3.50;;;;;;;3.58;64.10;97365.81;105810;1274;96456;-72
2022/01/30 10:05:24;;;;;;;11.10;3.40;;;;;;;3.50;64.63;97369.00;105886;1274;107780;-72
2022/01/30 10:07:55;;;;;;;9.90;3.30;;;;;;;3.45;64.64;97358.01;105899;1274;95424;-73
2022/01/30 10:10:26;;;;;;;16.20;4.00;;;;;;;3.39;64.25;97345.78;105873;1274;94369;-73
2022/01/30 10:13:02;;;;;;;9.90;3.90;;;;;;;3.32;65.75;97349.90;105899;1274;110137;-74
2022/01/30 10:15:31;;;;;;;15.40;3.50;;;;;;;3.28;64.51;97353.17;105956;1276;94993;-73
2022/01/30 10:18:04;;;;;;;17.40;4.10;;;;;;;3.26;65.18;97342.63;105701;1275;107550;-75
2022/01/30 10:20:38;;;;;;;13.80;4.10;;;;;;;3.26;65.55;97336.48;105760;1276;96615;-74
2022/01/30 10:23:09;;;;;;;16.00;4.20;;;;;;;3.27;65.80;97332.91;105814;1276;96525;-74
2022/01/30 10:25:50;;;;;;;18.40;4.80;;;;;;;3.30;65.28;97324.64;105787;1276;110913;-75
2022/01/30 10:28:31;;;;;;;13.60;3.60;;;;;;;3.38;65.69;97320.73;105746;1276;94369;-75
2022/01/30 10:31:04;;;;;;;19.90;5.20;;;;;;;3.45;65.94;97317.88;105754;1276;107796;-75
2022/01/30 10:33:38;;;;;;;17.70;4.60;;;;;;;3.46;66.25;97308.14;105838;1276;95260;-75
2022/01/30 10:36:10;;;;;;;;;;;;;;;3.46;66.36;97301.85;105911;1276;95064;-75
2022/01/30 10:38:45;;;;;;;18.30;5.40;;;;;;;3.48;66.07;97303.80;105853;1276;110624;-73
2022/01/30 10:41:21;;;;;;;11.60;4.00;;;;;;;3.57;65.81;97295.05;105923;1275;94680;-76
2022/01/30 10:44:00;;;;;;;14.60;3.80;;;;;;;3.67;65.94;97292.10;105993;1276;107680;-75
2022/01/30 10:46:38;;;;;;;13.80;4.60;;;;;;;3.71;65.92;97277.39;105978;1276;96539;-77
2022/01/30 10:49:18;;;;;;;14.30;3.90;;;;;;;3.77;65.86;97267.88;105870;1276;95213;-77
2022/01/30 10:51:55;;;;;;;16.70;4.50;;;;;;;3.82;66.04;97265.74;105947;1276;110082;-80
2022/01/30 10:54:29;;;;;;;13.90;4.60;;;;;;;3.83;65.85;97276.37;105953;1276;95235;-74
2022/01/30 10:57:10;;;;;;;13.20;4.90;;;;;;;3.80;66.11;97285.34;105990;1276;107787;-74
2022/01/30 10:59:43;;;;;;;15.40;3.20;;;;;;;3.76;65.78;97298.77;106019;1276;96603;-76
2022/01/30 11:02:16;;;;;;;10.50;3.90;;;;;;;3.70;66.11;97300.28;106095;1276;94268;-74
2022/01/30 11:04:48;;;;;;;17.50;4.40;;;;;;;3.60;66.17;97309.54;106025;1276;110079;-77
2022/01/30 11:07:20;;;;;;;17.70;3.80;;;;;;;3.51;66.69;97309.39;105943;1276;96548;-76
2022/01/30 11:10:07;;;;;;;13.80;3.70;;;;;;;3.38;67.23;97313.77;105923;1276;106723;-74
2022/01/30 11:13:32;;;;;;;15.10;4.30;;;;;;;3.24;67.41;97318.95;106013;1277;96546;-77
2022/01/30 11:18:03;;;;;;;17.00;4.80;;;;;;;3.03;67.80;97323.23;105964;1276;110066;-75
2022/01/30 11:20:34;;;;;;;18.30;4.50;;;;;;;3.01;67.33;97318.33;105936;1276;96494;-82
2022/01/30 11:23:08;;;;;;;18.10;5.20;;;;;;;3.02;68.02;97323.13;105775;1276;107646;-72
2022/01/30 11:25:40;;;;;;;17.70;5.00;;;;;;;3.02;67.85;97322.81;105819;1276;96520;-73
2022/01/30 11:28:16;;;;;;;16.40;5.40;;;;;;;3.00;67.36;97323.95;105956;1276;96618;-72
2022/01/30 11:30:52;;;;;;;22.50;5.30;;;;;;;2.99;67.80;97330.85;105899;1276;109054;-71
2022/01/30 11:33:21;;;;;;;14.70;4.60;;;;;;;2.96;67.87;97329.61;106051;1276;96538;-69
2022/01/30 11:35:51;;;;;;;18.00;4.70;;;;;;;2.93;67.76;97320.40;106084;1276;107933;-74
2022/01/30 11:38:23;;;;;;;19.40;5.10;;;;;;;2.94;67.84;97320.02;106035;1276;96501;-74
2022/01/30 11:41:12;;;;;;;18.60;5.10;;;;;;;2.93;68.61;97318.45;105917;1276;96510;-73
2022/01/30 11:44:17;;;;;;;15.60;4.20;;;;;;;2.94;68.29;97319.83;106057;1276;109986;-75
2022/01/30 11:46:54;;;;;;;18.20;4.70;;;;;;;2.89;68.54;97309.09;106045;1276;96399;-72
2022/01/30 11:49:44;;;;;;;18.90;4.70;;;;;;;2.80;69.00;97298.17;105961;1276;108011;-75
2022/01/30 11:52:17;;;;;;;15.40;4.50;;;;;;;2.78;68.74;97304.64;106028;1276;96635;-72
2022/01/30 11:54:50;;;;;;;19.30;5.10;;;;;;;2.76;69.61;97303.54;106134;1276;94319;-73
2022/01/30 11:57:21;;;;;;;17.50;5.30;;;;;;;2.73;69.36;97286.27;105900;1276;108045;-73
2022/01/30 11:59:55;;;;;;;16.40;4.50;;;;;;;2.73;69.71;97291.47;105791;1277;96705;-73
2022/01/30 12:02:35;;;;;;;21.30;5.40;;;;;;;2.75;69.53;97285.26;105957;1276;107617;-73
2022/01/30 12:05:08;;;;;;;21.50;6.50;;;;;;;2.77;69.89;97284.02;105935;1276;96467;-71
2022/01/30 12:07:41;;;;;;;19.40;5.20;;;;;;;2.84;69.74;97289.36;105922;1274;96545;-72
2022/01/30 12:10:15;;;;;;;18.80;5.30;;;;;;;2.93;69.47;97285.59;105964;1276;110004;-73
2022/01/30 12:13:01;;;;;;;21.90;6.30;;;;;;;3.04;69.28;97285.69;106096;1276;94633;-73
2022/01/30 12:15:45;;;;;;;22.70;4.90;;;;;;;3.18;69.52;97283.29;106045;1277;107783;-73
2022/01/30 12:18:36;;;;;;;22.80;5.60;;;;;;;3.28;69.32;97277.65;105859;1276;96658;-70
2022/01/30 12:21:15;;;;;;;20.00;4.80;;;;;;;3.32;69.23;97290.35;105991;1276;96618;-70
2022/01/30 12:23:43;;;;;;;19.40;4.20;;;;;;;3.32;69.16;97275.29;106031;1276;110126;-73
2022/01/30 12:26:19;;;;;;;18.10;4.10;;;;;;;3.32;69.32;97276.16;105997;1276;96479;-72
2022/01/30 12:28:55;;;;;;;19.10;6.10;;;;;;;3.30;69.26;97268.96;105840;1276;109705;-73
2022/01/30 12:31:34;;;;;;;19.50;4.80;;;;;;;3.29;69.22;97262.02;105919;1276;96683;-70